<?xml version='1.0' encoding='UTF-8'?><gpx version="1.1" creator="JPX - https://github.com/jenetics/jpx" xmlns="http://www.topografix.com/GPX/1/1"><trk><trkseg><trkpt lat="46.055635" lon="10.34357"><ele>454.00000000000006</ele><time>2026-04-23T07:48:19.391Z</time></trkpt><trkpt lat="46.0555717" lon="10.3435367"><ele>454.0</ele><time>2026-04-23T07:48:25.39Z</time></trkpt><trkpt lat="46.055515" lon="10.34348"><ele>454.0</ele><time>2026-04-23T07:48:30.405Z</time></trkpt><trkpt lat="46.0554467" lon="10.3434883"><ele>454.0</ele><time>2026-04-23T07:52:06.392Z</time></trkpt><trkpt lat="46.0554133" lon="10.3433217"><ele>454.00000000000006</ele><time>2026-04-23T07:52:15.394Z</time></trkpt><trkpt lat="46.0553767" lon="10.34321"><ele>454.0</ele><time>2026-04-23T07:52:21.395Z</time></trkpt><trkpt lat="46.05545" lon="10.3431917"><ele>454.00000000000006</ele><time>2026-04-23T07:52:27.393Z</time></trkpt><trkpt lat="46.055535" lon="10.34321"><ele>454.0</ele><time>2026-04-23T07:52:31.391Z</time></trkpt><trkpt lat="46.0556033" lon="10.34323"><ele>454.0</ele><time>2026-04-23T07:52:34.391Z</time></trkpt><trkpt lat="46.05568" lon="10.34325"><ele>454.0</ele><time>2026-04-23T07:52:37.395Z</time></trkpt><trkpt lat="46.0557567" lon="10.3432483"><ele>454.00000000000006</ele><time>2026-04-23T07:52:40.392Z</time></trkpt><trkpt lat="46.05583" lon="10.3432483"><ele>454.0</ele><time>2026-04-23T07:52:43.393Z</time></trkpt><trkpt lat="46.0558983" lon="10.3432433"><ele>456.14285714285717</ele><time>2026-04-23T07:52:47.392Z</time></trkpt><trkpt lat="46.0559767" lon="10.3432533"><ele>458.28571428571433</ele><time>2026-04-23T07:52:52.392Z</time></trkpt><trkpt lat="46.0560433" lon="10.3432083"><ele>460.42857142857144</ele><time>2026-04-23T07:52:57.393Z</time></trkpt><trkpt lat="46.0560917" lon="10.3431333"><ele>462.57142857142856</ele><time>2026-04-23T07:53:01.393Z</time></trkpt><trkpt lat="46.05614" lon="10.343065"><ele>464.7142857142857</ele><time>2026-04-23T07:53:10.393Z</time></trkpt><trkpt lat="46.056095" lon="10.3429983"><ele>466.8571428571429</ele><time>2026-04-23T07:53:16.394Z</time></trkpt><trkpt lat="46.0560667" lon="10.342905"><ele>469.0</ele><time>2026-04-23T07:53:21.394Z</time></trkpt><trkpt lat="46.0559875" lon="10.3425432"><ele>476.0</ele><time>2026-04-23T07:53:33.674Z</time></trkpt><trkpt lat="46.0563209" lon="10.3424298"><ele>483.0</ele><time>2026-04-23T07:53:47.138Z</time></trkpt><trkpt lat="46.0564024" lon="10.3421828"><ele>483.0</ele><time>2026-04-23T07:53:56.389Z</time></trkpt><trkpt lat="46.0565248" lon="10.3421252"><ele>483.0</ele><time>2026-04-23T07:54:03.975Z</time></trkpt><trkpt lat="46.056315" lon="10.3423033"><ele>483.0</ele><time>2026-04-23T07:54:15.394Z</time></trkpt><trkpt lat="46.0564133" lon="10.3421933"><ele>487.75</ele><time>2026-04-23T07:54:17.394Z</time></trkpt><trkpt lat="46.0565533" lon="10.342085"><ele>492.5</ele><time>2026-04-23T07:54:19.392Z</time></trkpt><trkpt lat="46.056565" lon="10.341975"><ele>497.25</ele><time>2026-04-23T07:54:22.392Z</time></trkpt><trkpt lat="46.0565867" lon="10.3418167"><ele>502.0</ele><time>2026-04-23T07:54:28.392Z</time></trkpt><trkpt lat="46.05646" lon="10.3417933"><ele>502.0</ele><time>2026-04-23T07:54:40.392Z</time></trkpt><trkpt lat="46.056315" lon="10.341635"><ele>502.00000000000006</ele><time>2026-04-23T07:54:42.392Z</time></trkpt><trkpt lat="46.056225" lon="10.3415533"><ele>502.00000000000006</ele><time>2026-04-23T07:54:44.391Z</time></trkpt><trkpt lat="46.0561383" lon="10.34152"><ele>502.0</ele><time>2026-04-23T07:54:47.391Z</time></trkpt><trkpt lat="46.0560717" lon="10.3415467"><ele>502.0</ele><time>2026-04-23T07:54:51.391Z</time></trkpt><trkpt lat="46.05601" lon="10.3416783"><ele>502.00000000000006</ele><time>2026-04-23T07:54:53.393Z</time></trkpt><trkpt lat="46.0560017" lon="10.3415783"><ele>502.0</ele><time>2026-04-23T07:55:02.393Z</time></trkpt><trkpt lat="46.055955" lon="10.341515"><ele>502.0</ele><time>2026-04-23T07:55:04.395Z</time></trkpt><trkpt lat="46.0558817" lon="10.3414983"><ele>502.0</ele><time>2026-04-23T07:55:07.392Z</time></trkpt><trkpt lat="46.0558167" lon="10.3414233"><ele>502.00000000000006</ele><time>2026-04-23T07:55:09.392Z</time></trkpt><trkpt lat="46.0557317" lon="10.341375"><ele>502.0</ele><time>2026-04-23T07:55:11.391Z</time></trkpt><trkpt lat="46.0556383" lon="10.3413633"><ele>508.1428571428571</ele><time>2026-04-23T07:55:15.393Z</time></trkpt><trkpt lat="46.0555633" lon="10.3413367"><ele>514.2857142857142</ele><time>2026-04-23T07:55:19.392Z</time></trkpt><trkpt lat="46.0554983" lon="10.341335"><ele>520.4285714285714</ele><time>2026-04-23T07:55:23.391Z</time></trkpt><trkpt lat="46.0554333" lon="10.3413417"><ele>526.5714285714286</ele><time>2026-04-23T07:55:28.392Z</time></trkpt><trkpt lat="46.0553683" lon="10.3413017"><ele>532.7142857142858</ele><time>2026-04-23T07:55:44.391Z</time></trkpt><trkpt lat="46.055315" lon="10.3412517"><ele>538.8571428571429</ele><time>2026-04-23T07:55:50.392Z</time></trkpt><trkpt lat="46.0552417" lon="10.3412383"><ele>545.0</ele><time>2026-04-23T07:55:54.392Z</time></trkpt><trkpt lat="46.05518" lon="10.3412067"><ele>545.0</ele><time>2026-04-23T07:55:58.391Z</time></trkpt><trkpt lat="46.05511" lon="10.34117"><ele>545.0</ele><time>2026-04-23T07:56:02.392Z</time></trkpt><trkpt lat="46.0565115" lon="10.3438047"><ele>527.0</ele><time>2026-04-23T07:56:51.038Z</time></trkpt><trkpt lat="46.0547517" lon="10.3412567"><ele>527.0</ele><time>2026-04-23T07:57:00.394Z</time></trkpt><trkpt lat="46.0547067" lon="10.3413367"><ele>527.0</ele><time>2026-04-23T07:57:01.392Z</time></trkpt><trkpt lat="46.05463" lon="10.34138"><ele>527.0</ele><time>2026-04-23T07:57:04.394Z</time></trkpt><trkpt lat="46.0545733" lon="10.341435"><ele>527.0</ele><time>2026-04-23T07:57:05.393Z</time></trkpt><trkpt lat="46.0544933" lon="10.34143"><ele>527.0</ele><time>2026-04-23T07:57:06.392Z</time></trkpt><trkpt lat="46.0543883" lon="10.3413817"><ele>527.0</ele><time>2026-04-23T07:57:08.392Z</time></trkpt><trkpt lat="46.0544283" lon="10.34129"><ele>527.0</ele><time>2026-04-23T07:57:19.391Z</time></trkpt><trkpt lat="46.0544533" lon="10.341205"><ele>527.0</ele><time>2026-04-23T07:57:25.392Z</time></trkpt><trkpt lat="46.0545017" lon="10.341135"><ele>527.0</ele><time>2026-04-23T07:57:32.394Z</time></trkpt><trkpt lat="46.0545383" lon="10.3410567"><ele>527.0</ele><time>2026-04-23T07:57:37.395Z</time></trkpt><trkpt lat="46.0544617" lon="10.3410033"><ele>527.0</ele><time>2026-04-23T07:57:41.392Z</time></trkpt><trkpt lat="46.0544333" lon="10.3409017"><ele>527.0</ele><time>2026-04-23T07:57:44.391Z</time></trkpt><trkpt lat="46.0545033" lon="10.3407717"><ele>527.0</ele><time>2026-04-23T07:57:52.391Z</time></trkpt><trkpt lat="46.054555" lon="10.3406517"><ele>527.0</ele><time>2026-04-23T07:57:54.392Z</time></trkpt><trkpt lat="46.0545867" lon="10.34057"><ele>527.0</ele><time>2026-04-23T07:57:56.392Z</time></trkpt><trkpt lat="46.054585" lon="10.3403883"><ele>527.0</ele><time>2026-04-23T07:57:59.392Z</time></trkpt><trkpt lat="46.0545283" lon="10.340275"><ele>527.0</ele><time>2026-04-23T07:58:01.394Z</time></trkpt><trkpt lat="46.054485" lon="10.3401683"><ele>531.0</ele><time>2026-04-23T07:58:04.393Z</time></trkpt><trkpt lat="46.0544483" lon="10.3400617"><ele>535.0</ele><time>2026-04-23T07:58:07.393Z</time></trkpt><trkpt lat="46.0543333" lon="10.33987"><ele>539.0</ele><time>2026-04-23T07:58:43.393Z</time></trkpt><trkpt lat="46.05427" lon="10.3397133"><ele>543.0</ele><time>2026-04-23T07:58:46.393Z</time></trkpt><trkpt lat="46.0541967" lon="10.33968"><ele>547.8333333333334</ele><time>2026-04-23T07:58:51.392Z</time></trkpt><trkpt lat="46.0541317" lon="10.339675"><ele>552.6666666666666</ele><time>2026-04-23T07:58:53.392Z</time></trkpt><trkpt lat="46.0540517" lon="10.3396067"><ele>557.5</ele><time>2026-04-23T07:58:55.391Z</time></trkpt><trkpt lat="46.053975" lon="10.3395517"><ele>562.3333333333333</ele><time>2026-04-23T07:58:57.392Z</time></trkpt><trkpt lat="46.0538983" lon="10.3394833"><ele>567.1666666666666</ele><time>2026-04-23T07:58:59.392Z</time></trkpt><trkpt lat="46.053835" lon="10.3394317"><ele>572.0</ele><time>2026-04-23T07:59:01.393Z</time></trkpt><trkpt lat="46.05376" lon="10.339435"><ele>575.1666666666666</ele><time>2026-04-23T07:59:06.393Z</time></trkpt><trkpt lat="46.0537217" lon="10.3395133"><ele>578.3333333333333</ele><time>2026-04-23T07:59:10.39Z</time></trkpt><trkpt lat="46.05371" lon="10.3396117"><ele>581.5</ele><time>2026-04-23T07:59:13.394Z</time></trkpt><trkpt lat="46.0536033" lon="10.3395433"><ele>584.6666666666666</ele><time>2026-04-23T07:59:15.392Z</time></trkpt><trkpt lat="46.0535283" lon="10.339495"><ele>587.8333333333334</ele><time>2026-04-23T07:59:16.393Z</time></trkpt><trkpt lat="46.0534567" lon="10.3394683"><ele>591.0</ele><time>2026-04-23T07:59:18.394Z</time></trkpt><trkpt lat="46.0533917" lon="10.3394983"><ele>591.0</ele><time>2026-04-23T07:59:21.391Z</time></trkpt><trkpt lat="46.0533267" lon="10.3395033"><ele>591.0</ele><time>2026-04-23T07:59:24.393Z</time></trkpt><trkpt lat="46.05328" lon="10.339655"><ele>591.0</ele><time>2026-04-23T07:59:27.393Z</time></trkpt><trkpt lat="46.0532017" lon="10.3397267"><ele>591.0</ele><time>2026-04-23T07:59:29.394Z</time></trkpt><trkpt lat="46.0531283" lon="10.339745"><ele>591.0</ele><time>2026-04-23T07:59:35.391Z</time></trkpt><trkpt lat="46.0530883" lon="10.339825"><ele>591.0</ele><time>2026-04-23T07:59:39.393Z</time></trkpt><trkpt lat="46.0529583" lon="10.3399583"><ele>588.4285714285714</ele><time>2026-04-23T07:59:45.391Z</time></trkpt><trkpt lat="46.05287" lon="10.3399667"><ele>585.8571428571429</ele><time>2026-04-23T07:59:52.393Z</time></trkpt><trkpt lat="46.0528033" lon="10.3399567"><ele>583.2857142857143</ele><time>2026-04-23T07:59:58.395Z</time></trkpt><trkpt lat="46.0527283" lon="10.3399533"><ele>580.7142857142858</ele><time>2026-04-23T08:00:02.392Z</time></trkpt><trkpt lat="46.052665" lon="10.3399617"><ele>578.1428571428572</ele><time>2026-04-23T08:00:05.395Z</time></trkpt><trkpt lat="46.0526033" lon="10.33999"><ele>575.5714285714286</ele><time>2026-04-23T08:00:08.393Z</time></trkpt><trkpt lat="46.05254" lon="10.33998"><ele>573.0</ele><time>2026-04-23T08:00:11.391Z</time></trkpt><trkpt lat="46.052595" lon="10.34003"><ele>573.0</ele><time>2026-04-23T08:00:21.391Z</time></trkpt><trkpt lat="46.0525217" lon="10.3399983"><ele>573.0</ele><time>2026-04-23T08:00:36.396Z</time></trkpt><trkpt lat="46.0524667" lon="10.3399467"><ele>573.0</ele><time>2026-04-23T08:00:40.397Z</time></trkpt><trkpt lat="46.0523933" lon="10.3398517"><ele>573.0</ele><time>2026-04-23T08:00:43.394Z</time></trkpt><trkpt lat="46.052355" lon="10.3397517"><ele>573.0</ele><time>2026-04-23T08:00:45.395Z</time></trkpt><trkpt lat="46.0523217" lon="10.33967"><ele>573.0</ele><time>2026-04-23T08:00:48.396Z</time></trkpt><trkpt lat="46.0522517" lon="10.3395967"><ele>579.5</ele><time>2026-04-23T08:00:51.396Z</time></trkpt><trkpt lat="46.05219" lon="10.339545"><ele>586.0</ele><time>2026-04-23T08:00:53.396Z</time></trkpt><trkpt lat="46.0521067" lon="10.3394817"><ele>592.5</ele><time>2026-04-23T08:00:56.396Z</time></trkpt><trkpt lat="46.05202" lon="10.33943"><ele>599.0</ele><time>2026-04-23T08:00:59.396Z</time></trkpt><trkpt lat="46.05196" lon="10.339365"><ele>605.5</ele><time>2026-04-23T08:01:02.396Z</time></trkpt><trkpt lat="46.0518933" lon="10.3393667"><ele>612.0</ele><time>2026-04-23T08:01:04.395Z</time></trkpt><trkpt lat="46.05183" lon="10.3393933"><ele>612.0</ele><time>2026-04-23T08:01:05.395Z</time></trkpt><trkpt lat="46.051765" lon="10.3393983"><ele>612.0</ele><time>2026-04-23T08:01:06.396Z</time></trkpt><trkpt lat="46.0517383" lon="10.3393033"><ele>612.0</ele><time>2026-04-23T08:01:26.395Z</time></trkpt><trkpt lat="46.051725" lon="10.33899"><ele>612.0</ele><time>2026-04-23T08:01:32.393Z</time></trkpt><trkpt lat="46.0514883" lon="10.339275"><ele>615.8000000000001</ele><time>2026-04-23T08:01:34.396Z</time></trkpt><trkpt lat="46.0514083" lon="10.3393133"><ele>619.6</ele><time>2026-04-23T08:01:38.394Z</time></trkpt><trkpt lat="46.0513383" lon="10.339325"><ele>623.4000000000001</ele><time>2026-04-23T08:01:43.394Z</time></trkpt><trkpt lat="46.051185" lon="10.3392333"><ele>627.2</ele><time>2026-04-23T08:01:52.395Z</time></trkpt><trkpt lat="46.0511167" lon="10.3392767"><ele>631.0</ele><time>2026-04-23T08:01:55.393Z</time></trkpt><trkpt lat="46.0510717" lon="10.339365"><ele>631.0</ele><time>2026-04-23T08:01:58.395Z</time></trkpt><trkpt lat="46.0510067" lon="10.3393133"><ele>631.0</ele><time>2026-04-23T08:01:59.392Z</time></trkpt><trkpt lat="46.0509467" lon="10.3392667"><ele>631.0</ele><time>2026-04-23T08:02:00.392Z</time></trkpt><trkpt lat="46.0508867" lon="10.3393133"><ele>631.0</ele><time>2026-04-23T08:02:04.391Z</time></trkpt><trkpt lat="46.0508383" lon="10.339235"><ele>631.0</ele><time>2026-04-23T08:02:07.392Z</time></trkpt><trkpt lat="46.0507917" lon="10.3391517"><ele>631.0</ele><time>2026-04-23T08:02:12.394Z</time></trkpt><trkpt lat="46.0507017" lon="10.339235"><ele>631.2857142857143</ele><time>2026-04-23T08:02:14.395Z</time></trkpt><trkpt lat="46.0506583" lon="10.33933"><ele>631.5714285714286</ele><time>2026-04-23T08:02:15.393Z</time></trkpt><trkpt lat="46.05062" lon="10.3394167"><ele>631.8571428571429</ele><time>2026-04-23T08:02:17.393Z</time></trkpt><trkpt lat="46.0505683" lon="10.3394783"><ele>632.1428571428571</ele><time>2026-04-23T08:02:21.395Z</time></trkpt><trkpt lat="46.050505" lon="10.3395017"><ele>632.4285714285714</ele><time>2026-04-23T08:02:28.394Z</time></trkpt><trkpt lat="46.0504383" lon="10.3395367"><ele>632.7142857142857</ele><time>2026-04-23T08:02:33.393Z</time></trkpt><trkpt lat="46.05037" lon="10.3395483"><ele>633.0</ele><time>2026-04-23T08:02:39.393Z</time></trkpt><trkpt lat="46.0503033" lon="10.3395767"><ele>633.0</ele><time>2026-04-23T08:02:43.39Z</time></trkpt><trkpt lat="46.05024" lon="10.3395933"><ele>633.0</ele><time>2026-04-23T08:02:52.396Z</time></trkpt><trkpt lat="46.0502033" lon="10.3394833"><ele>633.0</ele><time>2026-04-23T08:02:56.396Z</time></trkpt><trkpt lat="46.0501383" lon="10.3394517"><ele>633.0</ele><time>2026-04-23T08:02:59.395Z</time></trkpt><trkpt lat="46.0500583" lon="10.3394367"><ele>633.0</ele><time>2026-04-23T08:03:04.394Z</time></trkpt><trkpt lat="46.04915" lon="10.3398133"><ele>632.8</ele><time>2026-04-23T08:04:36.445Z</time></trkpt><trkpt lat="46.0491467" lon="10.3396717"><ele>632.5999999999999</ele><time>2026-04-23T08:04:40.394Z</time></trkpt><trkpt lat="46.049185" lon="10.3395583"><ele>632.4000000000001</ele><time>2026-04-23T08:04:42.394Z</time></trkpt><trkpt lat="46.049205" lon="10.3396967"><ele>632.2</ele><time>2026-04-23T08:04:59.392Z</time></trkpt><trkpt lat="46.049255" lon="10.339805"><ele>632.0</ele><time>2026-04-23T08:05:11.394Z</time></trkpt><trkpt lat="46.0491967" lon="10.33992"><ele>628.1666666666666</ele><time>2026-04-23T08:05:23.394Z</time></trkpt><trkpt lat="46.0491433" lon="10.3400067"><ele>624.3333333333333</ele><time>2026-04-23T08:05:25.393Z</time></trkpt><trkpt lat="46.0490717" lon="10.340115"><ele>620.5</ele><time>2026-04-23T08:05:27.393Z</time></trkpt><trkpt lat="46.049035" lon="10.340195"><ele>616.6666666666666</ele><time>2026-04-23T08:05:29.394Z</time></trkpt><trkpt lat="46.04911" lon="10.3401433"><ele>612.8333333333334</ele><time>2026-04-23T08:05:52.394Z</time></trkpt><trkpt lat="46.049175" lon="10.3400983"><ele>609.0</ele><time>2026-04-23T08:05:55.394Z</time></trkpt><trkpt lat="46.0492167" lon="10.3400033"><ele>568.0</ele><time>2026-04-23T08:05:58.393Z</time></trkpt><trkpt lat="46.0500917" lon="10.340165"><ele>568.0</ele><time>2026-04-23T08:06:35.394Z</time></trkpt><trkpt lat="46.05012" lon="10.34029"><ele>568.0</ele><time>2026-04-23T08:06:37.393Z</time></trkpt><trkpt lat="46.0501317" lon="10.340385"><ele>568.0</ele><time>2026-04-23T08:06:39.393Z</time></trkpt><trkpt lat="46.0501567" lon="10.3404783"><ele>568.0</ele><time>2026-04-23T08:06:41.392Z</time></trkpt><trkpt lat="46.0502467" lon="10.3405433"><ele>568.0</ele><time>2026-04-23T08:06:48.394Z</time></trkpt><trkpt lat="46.05103" lon="10.3413467"><ele>558.0</ele><time>2026-04-23T08:08:03.394Z</time></trkpt><trkpt lat="46.05107" lon="10.3414267"><ele>548.0</ele><time>2026-04-23T08:08:08.395Z</time></trkpt><trkpt lat="46.0511817" lon="10.34145"><ele>538.0</ele><time>2026-04-23T08:08:17.394Z</time></trkpt><trkpt lat="46.05127" lon="10.34146"><ele>528.0</ele><time>2026-04-23T08:08:24.393Z</time></trkpt><trkpt lat="46.05137" lon="10.341455"><ele>518.0</ele><time>2026-04-23T08:08:27.393Z</time></trkpt><trkpt lat="46.051435" lon="10.341445"><ele>508.0</ele><time>2026-04-23T08:08:28.393Z</time></trkpt><trkpt lat="46.0515533" lon="10.341455"><ele>504.75</ele><time>2026-04-23T08:08:30.393Z</time></trkpt><trkpt lat="46.05167" lon="10.3415183"><ele>501.5</ele><time>2026-04-23T08:08:32.394Z</time></trkpt><trkpt lat="46.0518367" lon="10.3416"><ele>498.25</ele><time>2026-04-23T08:08:34.39Z</time></trkpt><trkpt lat="46.0519233" lon="10.3416883"><ele>495.0</ele><time>2026-04-23T08:08:36.392Z</time></trkpt><trkpt lat="46.0519933" lon="10.3418083"><ele>495.0</ele><time>2026-04-23T08:08:38.393Z</time></trkpt><trkpt lat="46.0520683" lon="10.3419483"><ele>495.0</ele><time>2026-04-23T08:08:40.392Z</time></trkpt><trkpt lat="46.0523367" lon="10.3421017"><ele>495.0</ele><time>2026-04-23T08:08:46.394Z</time></trkpt><trkpt lat="46.0523933" lon="10.342205"><ele>495.6666666666667</ele><time>2026-04-23T08:08:47.394Z</time></trkpt><trkpt lat="46.0524683" lon="10.3421933"><ele>496.33333333333337</ele><time>2026-04-23T08:08:48.394Z</time></trkpt><trkpt lat="46.0526067" lon="10.34214"><ele>497.0</ele><time>2026-04-23T08:08:50.393Z</time></trkpt><trkpt lat="46.0526867" lon="10.3421033"><ele>497.6666666666667</ele><time>2026-04-23T08:08:51.392Z</time></trkpt><trkpt lat="46.0527517" lon="10.3420933"><ele>498.33333333333337</ele><time>2026-04-23T08:08:52.392Z</time></trkpt><trkpt lat="46.0528267" lon="10.342085"><ele>499.0</ele><time>2026-04-23T08:08:53.394Z</time></trkpt><trkpt lat="46.0529617" lon="10.3421467"><ele>499.00000000000006</ele><time>2026-04-23T08:08:54.394Z</time></trkpt><trkpt lat="46.053055" lon="10.3421817"><ele>499.0</ele><time>2026-04-23T08:08:55.393Z</time></trkpt><trkpt lat="46.0531333" lon="10.34221"><ele>499.0</ele><time>2026-04-23T08:08:56.393Z</time></trkpt><trkpt lat="46.053205" lon="10.342215"><ele>499.0</ele><time>2026-04-23T08:08:57.392Z</time></trkpt><trkpt lat="46.05329" lon="10.342225"><ele>499.00000000000006</ele><time>2026-04-23T08:08:58.394Z</time></trkpt><trkpt lat="46.053375" lon="10.342275"><ele>499.0</ele><time>2026-04-23T08:09:00.394Z</time></trkpt><trkpt lat="46.0534133" lon="10.34237"><ele>493.79999999999995</ele><time>2026-04-23T08:09:03.393Z</time></trkpt><trkpt lat="46.053445" lon="10.3424683"><ele>488.59999999999997</ele><time>2026-04-23T08:09:05.393Z</time></trkpt><trkpt lat="46.0534883" lon="10.3425483"><ele>483.4</ele><time>2026-04-23T08:09:08.392Z</time></trkpt><trkpt lat="46.0535317" lon="10.34262"><ele>478.2</ele><time>2026-04-23T08:09:10.391Z</time></trkpt><trkpt lat="46.0535933" lon="10.3427317"><ele>473.0</ele><time>2026-04-23T08:09:12.393Z</time></trkpt><trkpt lat="46.0537883" lon="10.342775"><ele>472.99999999999994</ele><time>2026-04-23T08:09:14.395Z</time></trkpt><trkpt lat="46.0538567" lon="10.3428033"><ele>473.0</ele><time>2026-04-23T08:09:15.394Z</time></trkpt><trkpt lat="46.0539267" lon="10.3428417"><ele>473.0</ele><time>2026-04-23T08:09:16.395Z</time></trkpt><trkpt lat="46.0539933" lon="10.3428683"><ele>473.0</ele><time>2026-04-23T08:09:17.393Z</time></trkpt><trkpt lat="46.054055" lon="10.3428967"><ele>472.99999999999994</ele><time>2026-04-23T08:09:18.393Z</time></trkpt><trkpt lat="46.0541233" lon="10.3429283"><ele>473.0</ele><time>2026-04-23T08:09:19.392Z</time></trkpt><trkpt lat="46.0542517" lon="10.3429417"><ele>469.0</ele><time>2026-04-23T08:09:21.392Z</time></trkpt><trkpt lat="46.0562535" lon="10.3433316"><ele>480.0</ele><time>2026-04-23T08:09:32.156Z</time></trkpt><trkpt lat="46.0555467" lon="10.3426583"><ele>480.0</ele><time>2026-04-23T08:09:41.395Z</time></trkpt><trkpt lat="46.0551717" lon="10.34268"><ele>480.0</ele><time>2026-04-23T08:09:42.392Z</time></trkpt><trkpt lat="46.0552917" lon="10.3426267"><ele>480.0</ele><time>2026-04-23T08:09:48.392Z</time></trkpt><trkpt lat="46.055365" lon="10.3426083"><ele>480.0</ele><time>2026-04-23T08:09:50.393Z</time></trkpt><trkpt lat="46.05545" lon="10.3425917"><ele>480.0</ele><time>2026-04-23T08:09:52.391Z</time></trkpt><trkpt lat="46.0555983" lon="10.3425883"><ele>480.0</ele><time>2026-04-23T08:09:56.393Z</time></trkpt><trkpt lat="46.05568" lon="10.3425933"><ele>480.0</ele><time>2026-04-23T08:09:58.392Z</time></trkpt><trkpt lat="46.0557633" lon="10.342615"><ele>481.0</ele><time>2026-04-23T08:10:01.393Z</time></trkpt><trkpt lat="46.05584" lon="10.342625"><ele>482.0</ele><time>2026-04-23T08:10:03.395Z</time></trkpt><trkpt lat="46.05592" lon="10.342645"><ele>483.0</ele><time>2026-04-23T08:10:05.393Z</time></trkpt><trkpt lat="46.0562583" lon="10.34277"><ele>483.0</ele><time>2026-04-23T08:10:22.392Z</time></trkpt><trkpt lat="46.0561383" lon="10.3429717"><ele>483.0</ele><time>2026-04-23T08:10:24.392Z</time></trkpt><trkpt lat="46.05615" lon="10.3430933"><ele>483.0</ele><time>2026-04-23T08:10:26.392Z</time></trkpt><trkpt lat="46.05589" lon="10.343105"><ele>454.0</ele><time>2026-04-23T08:10:27.391Z</time></trkpt><trkpt lat="46.0554367" lon="10.3430967"><ele>454.0</ele><time>2026-04-23T08:10:29.394Z</time></trkpt><trkpt lat="46.05528" lon="10.3431233"><ele>454.0</ele><time>2026-04-23T08:10:31.394Z</time></trkpt><trkpt lat="46.0552283" lon="10.34319"><ele>454.0</ele><time>2026-04-23T08:10:36.393Z</time></trkpt><trkpt lat="46.0552917" lon="10.3432183"><ele>454.0</ele><time>2026-04-23T08:10:55.392Z</time></trkpt><trkpt lat="46.05542" lon="10.34325"><ele>454.0</ele><time>2026-04-23T08:11:30.392Z</time></trkpt><trkpt lat="46.055355" lon="10.3432917"><ele>454.0</ele><time>2026-04-23T08:11:37.395Z</time></trkpt><trkpt lat="46.0554117" lon="10.3433633"><ele>454.0</ele><time>2026-04-23T08:12:05.391Z</time></trkpt><trkpt lat="46.0553617" lon="10.3433017"><ele>454.0</ele><time>2026-04-23T08:12:19.391Z</time></trkpt><trkpt lat="46.05545" lon="10.3432683"><ele>454.0</ele><time>2026-04-23T08:12:40.39Z</time></trkpt></trkseg></trk></gpx>